sensor_id;sensor_type;location;lat;lon;timestamp;pressure;altitude;pressure_sealevel;temperature;humidity
71662;BME280;59500;49.588;18.018;2022-07-26T00:00:59;97414.25;;;21.57;53.08
71662;BME280;59500;49.588;18.018;2022-07-26T00:03:25;97412.34;;;21.57;52.40
71662;BME280;59500;49.588;18.018;2022-07-26T00:05:51;97417.53;;;21.59;52.37
71662;BME280;59500;49.588;18.018;2022-07-26T00:08:17;97411.53;;;21.57;52.65
71662;BME280;59500;49.588;18.018;2022-07-26T00:10:46;97405.00;;;21.53;52.41
71662;BME280;59500;49.588;18.018;2022-07-26T00:13:12;97404.09;;;21.47;52.34
71662;BME280;59500;49.588;18.018;2022-07-26T00:15:38;97394.84;;;21.43;52.43
71662;BME280;59500;49.588;18.018;2022-07-26T00:18:05;97395.09;;;21.41;52.83
71662;BME280;59500;49.588;18.018;2022-07-26T00:20:31;97393.41;;;21.40;52.76
71662;BME280;59500;49.588;18.018;2022-07-26T00:22:57;97390.50;;;21.42;52.97
71662;BME280;59500;49.588;18.018;2022-07-26T00:25:23;97385.66;;;21.44;53.85
71662;BME280;59500;49.588;18.018;2022-07-26T00:27:49;97390.25;;;21.43;53.49
71662;BME280;59500;49.588;18.018;2022-07-26T00:30:15;97374.59;;;21.45;53.03
71662;BME280;59500;49.588;18.018;2022-07-26T00:32:41;97376.22;;;21.46;53.65
71662;BME280;59500;49.588;18.018;2022-07-26T00:35:07;97375.13;;;21.47;53.86
71662;BME280;59500;49.588;18.018;2022-07-26T00:37:33;97368.09;;;21.46;53.58
71662;BME280;59500;49.588;18.018;2022-07-26T00:39:59;97363.50;;;21.47;53.77
71662;BME280;59500;49.588;18.018;2022-07-26T00:42:25;97367.13;;;21.53;53.48
71662;BME280;59500;49.588;18.018;2022-07-26T00:44:51;97369.06;;;21.57;53.09
71662;BME280;59500;49.588;18.018;2022-07-26T00:47:17;97368.25;;;21.57;53.57
71662;BME280;59500;49.588;18.018;2022-07-26T00:49:44;97366.69;;;21.61;53.10
71662;BME280;59500;49.588;18.018;2022-07-26T00:52:10;97371.81;;;21.62;54.05
71662;BME280;59500;49.588;18.018;2022-07-26T00:54:39;97360.75;;;21.64;53.67
71662;BME280;59500;49.588;18.018;2022-07-26T00:57:06;97360.50;;;21.65;53.56
71662;BME280;59500;49.588;18.018;2022-07-26T00:59:32;97360.56;;;21.70;52.95
71662;BME280;59500;49.588;18.018;2022-07-26T01:01:58;97365.47;;;21.74;53.95
71662;BME280;59500;49.588;18.018;2022-07-26T01:04:23;97361.94;;;21.73;53.51
71662;BME280;59500;49.588;18.018;2022-07-26T01:06:51;97358.19;;;21.74;53.09
71662;BME280;59500;49.588;18.018;2022-07-26T01:09:17;97360.38;;;21.77;52.77
71662;BME280;59500;49.588;18.018;2022-07-26T01:11:44;97360.94;;;21.79;52.90
71662;BME280;59500;49.588;18.018;2022-07-26T01:14:10;97364.97;;;21.77;53.40
71662;BME280;59500;49.588;18.018;2022-07-26T01:16:36;97361.69;;;21.75;52.90
71662;BME280;59500;49.588;18.018;2022-07-26T01:19:02;97365.41;;;21.68;52.97
71662;BME280;59500;49.588;18.018;2022-07-26T01:21:29;97365.59;;;21.62;52.74
71662;BME280;59500;49.588;18.018;2022-07-26T01:23:55;97371.19;;;21.55;52.60
71662;BME280;59500;49.588;18.018;2022-07-26T01:26:20;97372.19;;;21.49;53.05
71662;BME280;59500;49.588;18.018;2022-07-26T01:28:46;97364.59;;;21.46;53.35
71662;BME280;59500;49.588;18.018;2022-07-26T01:31:12;97357.94;;;21.37;52.89
71662;BME280;59500;49.588;18.018;2022-07-26T01:33:38;97367.06;;;21.31;52.77
71662;BME280;59500;49.588;18.018;2022-07-26T01:36:04;97362.41;;;21.26;52.46
71662;BME280;59500;49.588;18.018;2022-07-26T01:38:30;97364.53;;;21.24;51.79
71662;BME280;59500;49.588;18.018;2022-07-26T01:40:56;97356.84;;;21.16;52.79
71662;BME280;59500;49.588;18.018;2022-07-26T01:43:22;97357.34;;;21.13;52.68
71662;BME280;59500;49.588;18.018;2022-07-26T01:45:48;97352.41;;;21.09;52.64
71662;BME280;59500;49.588;18.018;2022-07-26T01:48:14;97347.28;;;21.08;53.78
71662;BME280;59500;49.588;18.018;2022-07-26T01:50:40;97339.34;;;21.01;53.96
71662;BME280;59500;49.588;18.018;2022-07-26T01:53:09;97332.81;;;20.97;54.82
71662;BME280;59500;49.588;18.018;2022-07-26T01:55:35;97331.66;;;20.93;54.89
71662;BME280;59500;49.588;18.018;2022-07-26T01:58:06;97329.13;;;20.86;55.22
71662;BME280;59500;49.588;18.018;2022-07-26T02:00:33;97329.13;;;20.86;55.08
71662;BME280;59500;49.588;18.018;2022-07-26T02:03:00;97322.06;;;20.85;56.26
71662;BME280;59500;49.588;18.018;2022-07-26T02:05:26;97324.22;;;20.83;55.91
71662;BME280;59500;49.588;18.018;2022-07-26T02:07:52;97319.94;;;20.87;55.00
71662;BME280;59500;49.588;18.018;2022-07-26T02:10:18;97313.78;;;20.92;55.48
71662;BME280;59500;49.588;18.018;2022-07-26T02:12:44;97314.69;;;20.98;55.63
71662;BME280;59500;49.588;18.018;2022-07-26T02:15:12;97308.53;;;21.02;55.06
71662;BME280;59500;49.588;18.018;2022-07-26T02:17:39;97318.69;;;21.12;54.93
71662;BME280;59500;49.588;18.018;2022-07-26T02:20:06;97312.00;;;21.20;54.77
71662;BME280;59500;49.588;18.018;2022-07-26T02:22:33;97304.28;;;21.28;53.96
71662;BME280;59500;49.588;18.018;2022-07-26T02:24:58;97307.69;;;21.41;53.19
71662;BME280;59500;49.588;18.018;2022-07-26T02:27:25;97310.41;;;21.63;51.84
71662;BME280;59500;49.588;18.018;2022-07-26T02:29:50;97309.06;;;21.87;52.04
71662;BME280;59500;49.588;18.018;2022-07-26T02:32:16;97308.75;;;22.11;51.53
71662;BME280;59500;49.588;18.018;2022-07-26T02:34:42;97311.25;;;22.18;50.91
71662;BME280;59500;49.588;18.018;2022-07-26T02:37:08;97304.31;;;22.27;50.99
71662;BME280;59500;49.588;18.018;2022-07-26T02:39:34;97299.88;;;22.48;49.32
71662;BME280;59500;49.588;18.018;2022-07-26T02:42:01;97302.28;;;22.82;48.39
71662;BME280;59500;49.588;18.018;2022-07-26T02:44:28;97307.00;;;22.97;48.19
71662;BME280;59500;49.588;18.018;2022-07-26T02:46:54;97304.50;;;23.27;46.66
71662;BME280;59500;49.588;18.018;2022-07-26T02:49:20;97308.63;;;23.45;46.41
71662;BME280;59500;49.588;18.018;2022-07-26T02:51:46;97308.41;;;23.62;45.51
71662;BME280;59500;49.588;18.018;2022-07-26T02:54:12;97298.13;;;23.69;46.80
71662;BME280;59500;49.588;18.018;2022-07-26T02:56:39;97305.75;;;23.72;46.88
71662;BME280;59500;49.588;18.018;2022-07-26T02:59:05;97298.97;;;23.75;45.33
71662;BME280;59500;49.588;18.018;2022-07-26T03:01:32;97293.84;;;23.84;45.10
71662;BME280;59500;49.588;18.018;2022-07-26T03:03:58;97292.50;;;23.86;45.60
71662;BME280;59500;49.588;18.018;2022-07-26T03:06:24;97288.72;;;23.87;46.15
71662;BME280;59500;49.588;18.018;2022-07-26T03:08:49;97284.09;;;23.88;46.44
71662;BME280;59500;49.588;18.018;2022-07-26T03:11:15;97286.81;;;23.88;45.94
71662;BME280;59500;49.588;18.018;2022-07-26T03:13:41;97278.91;;;23.86;45.42
71662;BME280;59500;49.588;18.018;2022-07-26T03:16:07;97286.00;;;23.87;45.72
71662;BME280;59500;49.588;18.018;2022-07-26T03:18:33;97281.38;;;23.83;46.05
71662;BME280;59500;49.588;18.018;2022-07-26T03:21:01;97272.69;;;23.86;45.54
71662;BME280;59500;49.588;18.018;2022-07-26T03:23:27;97267.28;;;23.96;46.01
71662;BME280;59500;49.588;18.018;2022-07-26T03:25:53;97267.00;;;24.03;44.88
71662;BME280;59500;49.588;18.018;2022-07-26T03:28:18;97257.78;;;23.99;46.39
71662;BME280;59500;49.588;18.018;2022-07-26T03:30:44;97268.34;;;23.95;45.78
71662;BME280;59500;49.588;18.018;2022-07-26T03:33:10;97266.97;;;23.98;45.28
71662;BME280;59500;49.588;18.018;2022-07-26T03:35:36;97266.47;;;24.06;45.19
71662;BME280;59500;49.588;18.018;2022-07-26T03:38:01;97265.38;;;24.17;44.39
71662;BME280;59500;49.588;18.018;2022-07-26T03:40:28;97268.66;;;24.34;44.20
71662;BME280;59500;49.588;18.018;2022-07-26T03:42:53;97275.72;;;24.46;43.76
71662;BME280;59500;49.588;18.018;2022-07-26T03:45:19;97280.38;;;24.55;43.61
71662;BME280;59500;49.588;18.018;2022-07-26T03:47:45;97302.38;;;24.69;43.33
71662;BME280;59500;49.588;18.018;2022-07-26T03:50:11;97337.44;;;24.76;44.04
71662;BME280;59500;49.588;18.018;2022-07-26T03:52:37;97357.81;;;24.84;43.82
71662;BME280;59500;49.588;18.018;2022-07-26T03:55:04;97363.25;;;24.99;43.38
71662;BME280;59500;49.588;18.018;2022-07-26T03:57:32;97358.34;;;25.22;43.23
71662;BME280;59500;49.588;18.018;2022-07-26T03:59:57;97361.34;;;25.25;42.31
71662;BME280;59500;49.588;18.018;2022-07-26T04:02:24;97366.50;;;25.27;42.47
71662;BME280;59500;49.588;18.018;2022-07-26T04:04:49;97367.34;;;25.22;42.61
71662;BME280;59500;49.588;18.018;2022-07-26T04:07:15;97376.03;;;25.09;43.39
71662;BME280;59500;49.588;18.018;2022-07-26T04:09:41;97367.06;;;24.98;43.37
71662;BME280;59500;49.588;18.018;2022-07-26T04:12:07;97377.13;;;24.92;43.57
71662;BME280;59500;49.588;18.018;2022-07-26T04:14:33;97382.56;;;24.87;43.60
71662;BME280;59500;49.588;18.018;2022-07-26T04:16:59;97374.97;;;24.79;44.04
71662;BME280;59500;49.588;18.018;2022-07-26T04:19:24;97382.31;;;24.73;44.05
71662;BME280;59500;49.588;18.018;2022-07-26T04:21:50;97391.03;;;24.75;44.23
71662;BME280;59500;49.588;18.018;2022-07-26T04:24:16;97407.88;;;24.83;44.96
71662;BME280;59500;49.588;18.018;2022-07-26T04:26:42;97394.25;;;24.88;44.58
71662;BME280;59500;49.588;18.018;2022-07-26T04:29:07;97407.88;;;24.88;45.90
71662;BME280;59500;49.588;18.018;2022-07-26T04:31:34;97415.22;;;24.87;45.24
71662;BME280;59500;49.588;18.018;2022-07-26T04:33:59;97413.56;;;24.81;45.71
71662;BME280;59500;49.588;18.018;2022-07-26T04:36:25;97419.53;;;24.73;45.91
71662;BME280;59500;49.588;18.018;2022-07-26T04:38:51;97436.69;;;24.63;46.67
71662;BME280;59500;49.588;18.018;2022-07-26T04:41:17;97441.81;;;24.54;46.89
71662;BME280;59500;49.588;18.018;2022-07-26T04:43:42;97447.50;;;24.43;47.85
71662;BME280;59500;49.588;18.018;2022-07-26T04:46:08;97446.63;;;24.32;48.21
71662;BME280;59500;49.588;18.018;2022-07-26T04:48:35;97448.25;;;24.23;48.81
71662;BME280;59500;49.588;18.018;2022-07-26T04:51:01;97459.63;;;24.09;49.75
71662;BME280;59500;49.588;18.018;2022-07-26T04:53:29;97459.81;;;23.92;50.24
71662;BME280;59500;49.588;18.018;2022-07-26T04:56:02;97458.13;;;23.81;51.01
71662;BME280;59500;49.588;18.018;2022-07-26T04:58:28;97463.00;;;23.79;51.33
71662;BME280;59500;49.588;18.018;2022-07-26T05:00:54;97468.97;;;23.76;50.99
71662;BME280;59500;49.588;18.018;2022-07-26T05:03:23;97469.41;;;23.63;51.96
71662;BME280;59500;49.588;18.018;2022-07-26T05:05:51;97464.69;;;23.48;52.28
71662;BME280;59500;49.588;18.018;2022-07-26T05:08:17;97464.09;;;23.41;53.20
71662;BME280;59500;49.588;18.018;2022-07-26T05:10:42;97460.03;;;23.38;53.69
71662;BME280;59500;49.588;18.018;2022-07-26T05:13:34;97467.28;;;23.27;54.08
71662;BME280;59500;49.588;18.018;2022-07-26T05:16:23;97475.66;;;23.26;55.03
71662;BME280;59500;49.588;18.018;2022-07-26T05:19:17;97493.56;;;23.27;54.94
71662;BME280;59500;49.588;18.018;2022-07-26T05:22:03;97499.69;;;23.12;56.32
71662;BME280;59500;49.588;18.018;2022-07-26T05:24:55;97529.94;;;22.99;57.08
71662;BME280;59500;49.588;18.018;2022-07-26T05:27:44;97547.97;;;22.88;58.16
71662;BME280;59500;49.588;18.018;2022-07-26T05:30:55;97579.91;;;22.81;59.18
71662;BME280;59500;49.588;18.018;2022-07-26T05:33:27;97601.16;;;22.67;59.60
71662;BME280;59500;49.588;18.018;2022-07-26T05:35:55;97601.84;;;22.57;60.03
71662;BME280;59500;49.588;18.018;2022-07-26T05:38:41;97609.34;;;22.50;60.85
71662;BME280;59500;49.588;18.018;2022-07-26T05:41:08;97640.97;;;22.44;61.54
71662;BME280;59500;49.588;18.018;2022-07-26T05:43:34;97643.56;;;22.34;62.03
71662;BME280;59500;49.588;18.018;2022-07-26T05:46:01;97659.50;;;22.30;62.21
71662;BME280;59500;49.588;18.018;2022-07-26T05:48:27;97669.19;;;22.26;62.75
71662;BME280;59500;49.588;18.018;2022-07-26T05:50:53;97664.13;;;22.18;63.18
71662;BME280;59500;49.588;18.018;2022-07-26T05:53:19;97666.31;;;22.16;63.67
71662;BME280;59500;49.588;18.018;2022-07-26T05:55:45;97662.84;;;22.21;63.55
71662;BME280;59500;49.588;18.018;2022-07-26T05:58:11;97674.16;;;22.18;63.82
71662;BME280;59500;49.588;18.018;2022-07-26T06:00:39;97668.75;;;22.18;63.80
71662;BME280;59500;49.588;18.018;2022-07-26T06:04:01;97672.13;;;22.25;63.81
71662;BME280;59500;49.588;18.018;2022-07-26T06:19:45;97693.19;;;22.57;62.32
71662;BME280;59500;49.588;18.018;2022-07-26T06:22:13;97698.44;;;22.63;61.63
71662;BME280;59500;49.588;18.018;2022-07-26T06:24:39;97701.78;;;22.53;61.98
71662;BME280;59500;49.588;18.018;2022-07-26T06:27:08;97714.88;;;22.57;62.24
71662;BME280;59500;49.588;18.018;2022-07-26T06:29:57;97713.53;;;22.59;63.19
71662;BME280;59500;49.588;18.018;2022-07-26T06:32:45;97723.75;;;22.52;63.84
71662;BME280;59500;49.588;18.018;2022-07-26T06:35:14;97736.63;;;22.45;64.59
71662;BME280;59500;49.588;18.018;2022-07-26T06:37:42;97730.97;;;22.46;64.60
71662;BME280;59500;49.588;18.018;2022-07-26T06:40:34;97718.31;;;22.52;65.12
71662;BME280;59500;49.588;18.018;2022-07-26T06:43:32;97713.91;;;22.46;66.54
71662;BME280;59500;49.588;18.018;2022-07-26T06:49:34;97703.47;;;22.38;69.38
71662;BME280;59500;49.588;18.018;2022-07-26T06:52:33;97687.16;;;22.33;71.01
71662;BME280;59500;49.588;18.018;2022-07-26T06:55:23;97686.75;;;22.41;70.14
71662;BME280;59500;49.588;18.018;2022-07-26T06:58:14;97690.47;;;22.57;68.51
71662;BME280;59500;49.588;18.018;2022-07-26T07:00:57;97688.03;;;22.77;68.42
71662;BME280;59500;49.588;18.018;2022-07-26T07:03:53;97687.47;;;22.97;66.63
71662;BME280;59500;49.588;18.018;2022-07-26T07:06:47;97686.16;;;23.00;66.01
71662;BME280;59500;49.588;18.018;2022-07-26T07:09:40;97684.00;;;23.02;67.08
71662;BME280;59500;49.588;18.018;2022-07-26T07:12:49;97689.25;;;23.08;66.66
71662;BME280;59500;49.588;18.018;2022-07-26T07:22:17;97695.31;;;23.97;66.20
71662;BME280;59500;49.588;18.018;2022-07-26T07:25:20;97694.97;;;24.63;63.87
71662;BME280;59500;49.588;18.018;2022-07-26T07:28:39;97698.66;;;24.94;61.37
71662;BME280;59500;49.588;18.018;2022-07-26T07:31:27;97700.63;;;25.09;61.77
71662;BME280;59500;49.588;18.018;2022-07-26T07:46:52;97736.22;;;23.85;62.48
71662;BME280;59500;49.588;18.018;2022-07-26T08:11:16;97754.06;;;22.88;68.83
71662;BME280;59500;49.588;18.018;2022-07-26T08:14:32;97761.28;;;22.82;68.90
71662;BME280;59500;49.588;18.018;2022-07-26T08:17:27;97762.56;;;22.75;69.58
71662;BME280;59500;49.588;18.018;2022-07-26T08:20:20;97750.22;;;22.67;70.72
71662;BME280;59500;49.588;18.018;2022-07-26T08:23:07;97756.22;;;22.69;70.05
71662;BME280;59500;49.588;18.018;2022-07-26T08:26:08;97760.66;;;22.75;68.19
71662;BME280;59500;49.588;18.018;2022-07-26T08:32:17;97757.72;;;22.60;70.34
71662;BME280;59500;49.588;18.018;2022-07-26T08:35:11;97755.44;;;22.51;71.16
71662;BME280;59500;49.588;18.018;2022-07-26T08:37:58;97749.63;;;22.43;70.68
71662;BME280;59500;49.588;18.018;2022-07-26T08:41:14;97741.81;;;22.46;70.11
71662;BME280;59500;49.588;18.018;2022-07-26T08:44:41;97733.25;;;22.55;69.45
71662;BME280;59500;49.588;18.018;2022-07-26T08:47:37;97725.44;;;22.58;68.78
71662;BME280;59500;49.588;18.018;2022-07-26T08:50:38;97726.91;;;22.66;68.13
71662;BME280;59500;49.588;18.018;2022-07-26T08:53:38;97744.00;;;22.66;68.79
71662;BME280;59500;49.588;18.018;2022-07-26T08:56:28;97757.25;;;22.63;69.97
71662;BME280;59500;49.588;18.018;2022-07-26T08:59:26;97762.16;;;22.66;67.96
71662;BME280;59500;49.588;18.018;2022-07-26T09:02:17;97765.69;;;22.66;68.08
71662;BME280;59500;49.588;18.018;2022-07-26T09:05:08;97778.00;;;22.74;68.41
71662;BME280;59500;49.588;18.018;2022-07-26T09:07:56;97785.06;;;22.75;67.73
71662;BME280;59500;49.588;18.018;2022-07-26T09:14:10;97791.56;;;22.40;67.09
71662;BME280;59500;49.588;18.018;2022-07-26T09:17:18;97791.31;;;22.25;67.83
71662;BME280;59500;49.588;18.018;2022-07-26T09:20:23;97803.66;;;22.33;67.99
71662;BME280;59500;49.588;18.018;2022-07-26T09:23:21;97808.25;;;22.32;68.39
71662;BME280;59500;49.588;18.018;2022-07-26T09:26:21;97797.56;;;22.25;67.62
71662;BME280;59500;49.588;18.018;2022-07-26T09:29:09;97805.44;;;22.27;68.32
71662;BME280;59500;49.588;18.018;2022-07-26T09:32:20;97803.56;;;22.44;68.12
71662;BME280;59500;49.588;18.018;2022-07-26T09:35:32;97809.38;;;22.53;68.15
71662;BME280;59500;49.588;18.018;2022-07-26T09:38:43;97808.97;;;22.44;67.25
71662;BME280;59500;49.588;18.018;2022-07-26T09:41:53;97813.31;;;22.28;67.12
71662;BME280;59500;49.588;18.018;2022-07-26T09:44:33;97813.63;;;22.15;67.85
71662;BME280;59500;49.588;18.018;2022-07-26T09:47:42;97819.56;;;22.00;67.63
71662;BME280;59500;49.588;18.018;2022-07-26T09:50:27;97816.00;;;21.83;68.47
71662;BME280;59500;49.588;18.018;2022-07-26T09:53:07;97823.94;;;21.73;68.46
71662;BME280;59500;49.588;18.018;2022-07-26T09:58:36;97827.97;;;21.58;70.64
71662;BME280;59500;49.588;18.018;2022-07-26T10:01:04;97820.72;;;21.47;70.94
71662;BME280;59500;49.588;18.018;2022-07-26T10:03:54;97831.47;;;21.42;70.62
71662;BME280;59500;49.588;18.018;2022-07-26T10:07:00;97840.97;;;21.21;70.83
71662;BME280;59500;49.588;18.018;2022-07-26T10:10:12;97837.84;;;21.12;71.25
71662;BME280;59500;49.588;18.018;2022-07-26T10:12:39;97851.94;;;21.02;70.02
71662;BME280;59500;49.588;18.018;2022-07-26T10:15:05;97858.19;;;20.91;69.61
71662;BME280;59500;49.588;18.018;2022-07-26T10:17:41;97860.00;;;20.55;70.82
71662;BME280;59500;49.588;18.018;2022-07-26T10:20:36;97864.16;;;20.27;71.34
71662;BME280;59500;49.588;18.018;2022-07-26T10:22:59;97860.34;;;20.05;72.53
71662;BME280;59500;49.588;18.018;2022-07-26T10:27:58;97872.63;;;19.89;73.79
71662;BME280;59500;49.588;18.018;2022-07-26T10:30:29;97870.81;;;19.83;74.16
71662;BME280;59500;49.588;18.018;2022-07-26T10:32:59;97869.50;;;19.74;73.95
71662;BME280;59500;49.588;18.018;2022-07-26T10:38:23;97882.75;;;19.57;71.58
71662;BME280;59500;49.588;18.018;2022-07-26T10:43:20;97893.69;;;19.25;70.19
71662;BME280;59500;49.588;18.018;2022-07-26T10:45:46;97900.41;;;19.16;71.99
71662;BME280;59500;49.588;18.018;2022-07-26T10:48:19;97902.56;;;19.07;71.46
71662;BME280;59500;49.588;18.018;2022-07-26T10:50:50;97915.97;;;18.95;71.67
71662;BME280;59500;49.588;18.018;2022-07-26T10:53:20;97930.47;;;18.94;73.28
71662;BME280;59500;49.588;18.018;2022-07-26T10:55:52;97927.22;;;18.86;72.10
71662;BME280;59500;49.588;18.018;2022-07-26T10:58:20;97930.63;;;18.99;74.00
71662;BME280;59500;49.588;18.018;2022-07-26T11:01:01;97938.44;;;19.08;75.13
71662;BME280;59500;49.588;18.018;2022-07-26T11:03:39;97944.38;;;19.16;74.98
71662;BME280;59500;49.588;18.018;2022-07-26T11:06:28;97938.88;;;19.05;73.21
71662;BME280;59500;49.588;18.018;2022-07-26T11:08:55;97951.78;;;18.77;72.48
71662;BME280;59500;49.588;18.018;2022-07-26T11:11:29;97946.88;;;18.61;73.28
71662;BME280;59500;49.588;18.018;2022-07-26T11:16:36;97941.97;;;18.51;74.82
71662;BME280;59500;49.588;18.018;2022-07-26T11:19:29;97941.13;;;18.51;75.43
71662;BME280;59500;49.588;18.018;2022-07-26T11:21:57;97952.56;;;18.46;75.50
71662;BME280;59500;49.588;18.018;2022-07-26T11:24:24;97953.75;;;18.18;75.22
71662;BME280;59500;49.588;18.018;2022-07-26T11:26:50;97947.41;;;18.06;75.25
71662;BME280;59500;49.588;18.018;2022-07-26T11:29:27;97943.34;;;17.90;73.97
71662;BME280;59500;49.588;18.018;2022-07-26T11:31:53;97935.66;;;17.94;74.77
71662;BME280;59500;49.588;18.018;2022-07-26T11:34:22;97932.53;;;17.97;75.58
71662;BME280;59500;49.588;18.018;2022-07-26T11:36:51;97933.13;;;18.06;75.61
71662;BME280;59500;49.588;18.018;2022-07-26T11:39:22;97931.78;;;18.22;75.29
71662;BME280;59500;49.588;18.018;2022-07-26T11:41:50;97930.94;;;18.28;76.02
71662;BME280;59500;49.588;18.018;2022-07-26T11:44:22;97926.59;;;18.27;75.14
71662;BME280;59500;49.588;18.018;2022-07-26T11:46:49;97929.09;;;18.22;75.01
71662;BME280;59500;49.588;18.018;2022-07-26T11:51:54;97916.97;;;18.37;75.56
71662;BME280;59500;49.588;18.018;2022-07-26T11:54:21;97916.06;;;18.50;75.07
71662;BME280;59500;49.588;18.018;2022-07-26T11:56:54;97922.22;;;18.57;74.28
71662;BME280;59500;49.588;18.018;2022-07-26T11:59:21;97924.66;;;18.66;73.15
71662;BME280;59500;49.588;18.018;2022-07-26T12:01:49;97921.22;;;18.84;73.26
71662;BME280;59500;49.588;18.018;2022-07-26T12:04:27;97924.59;;;19.04;73.80
71662;BME280;59500;49.588;18.018;2022-07-26T12:06:56;97914.56;;;19.11;72.73
71662;BME280;59500;49.588;18.018;2022-07-26T12:09:37;97920.25;;;19.21;73.32
71662;BME280;59500;49.588;18.018;2022-07-26T12:12:07;97920.19;;;19.28;73.30
71662;BME280;59500;49.588;18.018;2022-07-26T12:14:35;97911.06;;;19.29;73.43
71662;BME280;59500;49.588;18.018;2022-07-26T12:17:13;97902.97;;;19.29;73.52
71662;BME280;59500;49.588;18.018;2022-07-26T12:19:40;97890.78;;;19.27;73.45
71662;BME280;59500;49.588;18.018;2022-07-26T12:22:32;97886.28;;;19.20;74.67
71662;BME280;59500;49.588;18.018;2022-07-26T12:24:58;97888.28;;;19.07;73.38
71662;BME280;59500;49.588;18.018;2022-07-26T12:27:29;97888.03;;;19.08;73.90
71662;BME280;59500;49.588;18.018;2022-07-26T12:30:14;97897.34;;;19.12;71.27
71662;BME280;59500;49.588;18.018;2022-07-26T12:32:42;97894.44;;;19.14;70.86
71662;BME280;59500;49.588;18.018;2022-07-26T12:35:13;97894.97;;;19.22;70.32
71662;BME280;59500;49.588;18.018;2022-07-26T12:40:18;97912.50;;;19.50;70.90
71662;BME280;59500;49.588;18.018;2022-07-26T12:45:23;97907.78;;;19.82;69.88
71662;BME280;59500;49.588;18.018;2022-07-26T12:47:51;97908.78;;;19.88;70.41
71662;BME280;59500;49.588;18.018;2022-07-26T12:50:21;97902.19;;;19.84;69.33
71662;BME280;59500;49.588;18.018;2022-07-26T12:52:48;97895.56;;;19.80;69.73
71662;BME280;59500;49.588;18.018;2022-07-26T12:55:18;97897.38;;;19.86;69.68
71662;BME280;59500;49.588;18.018;2022-07-26T12:57:45;97894.59;;;19.93;69.61
71662;BME280;59500;49.588;18.018;2022-07-26T13:00:12;97901.34;;;20.14;69.47
71662;BME280;59500;49.588;18.018;2022-07-26T13:02:41;97899.19;;;20.34;68.41
71662;BME280;59500;49.588;18.018;2022-07-26T13:05:08;97899.16;;;20.64;68.53
71662;BME280;59500;49.588;18.018;2022-07-26T13:07:35;97894.84;;;20.75;66.65
71662;BME280;59500;49.588;18.018;2022-07-26T13:10:03;97893.16;;;20.62;64.95
71662;BME280;59500;49.588;18.018;2022-07-26T13:12:29;97891.88;;;20.65;65.42
71662;BME280;59500;49.588;18.018;2022-07-26T13:14:55;97886.03;;;20.80;67.38
71662;BME280;59500;49.588;18.018;2022-07-26T13:17:21;97897.19;;;20.72;65.83
71662;BME280;59500;49.588;18.018;2022-07-26T13:19:47;97894.66;;;20.46;64.69
71662;BME280;59500;49.588;18.018;2022-07-26T13:22:13;97889.72;;;20.43;65.56
71662;BME280;59500;49.588;18.018;2022-07-26T13:24:39;97895.28;;;20.30;66.12
71662;BME280;59500;49.588;18.018;2022-07-26T13:27:06;97901.63;;;20.24;67.33
71662;BME280;59500;49.588;18.018;2022-07-26T13:29:34;97896.31;;;20.17;65.16
71662;BME280;59500;49.588;18.018;2022-07-26T13:32:02;97893.84;;;20.16;66.51
71662;BME280;59500;49.588;18.018;2022-07-26T13:34:28;97899.97;;;20.23;66.73
71662;BME280;59500;49.588;18.018;2022-07-26T13:36:55;97900.94;;;20.29;66.32
71662;BME280;59500;49.588;18.018;2022-07-26T13:39:22;97903.56;;;20.47;67.84
71662;BME280;59500;49.588;18.018;2022-07-26T13:41:48;97907.81;;;20.55;66.36
71662;BME280;59500;49.588;18.018;2022-07-26T13:44:14;97901.88;;;20.64;66.04
71662;BME280;59500;49.588;18.018;2022-07-26T13:46:40;97900.72;;;20.84;65.10
71662;BME280;59500;49.588;18.018;2022-07-26T13:49:06;97902.50;;;21.02;64.67
71662;BME280;59500;49.588;18.018;2022-07-26T13:51:35;97904.03;;;20.98;65.30
71662;BME280;59500;49.588;18.018;2022-07-26T13:54:01;97901.22;;;20.93;65.01
71662;BME280;59500;49.588;18.018;2022-07-26T13:56:26;97910.47;;;20.85;62.86
71662;BME280;59500;49.588;18.018;2022-07-26T13:58:53;97914.00;;;21.09;64.44
71662;BME280;59500;49.588;18.018;2022-07-26T14:01:18;97910.84;;;21.12;63.81
71662;BME280;59500;49.588;18.018;2022-07-26T14:03:44;97910.03;;;21.23;62.29
71662;BME280;59500;49.588;18.018;2022-07-26T14:06:10;97917.56;;;21.21;62.09
71662;BME280;59500;49.588;18.018;2022-07-26T14:08:37;97914.59;;;21.11;63.20
71662;BME280;59500;49.588;18.018;2022-07-26T14:11:03;97909.19;;;20.99;63.62
71662;BME280;59500;49.588;18.018;2022-07-26T14:13:29;97903.88;;;20.81;63.01
71662;BME280;59500;49.588;18.018;2022-07-26T14:15:55;97905.50;;;20.58;63.74
71662;BME280;59500;49.588;18.018;2022-07-26T14:18:21;97908.63;;;20.55;65.21
71662;BME280;59500;49.588;18.018;2022-07-26T14:20:47;97913.38;;;20.60;65.14
71662;BME280;59500;49.588;18.018;2022-07-26T14:23:13;97915.75;;;20.68;66.43
71662;BME280;59500;49.588;18.018;2022-07-26T14:25:38;97910.59;;;20.78;66.69
71662;BME280;59500;49.588;18.018;2022-07-26T14:28:04;97908.13;;;20.77;65.59
71662;BME280;59500;49.588;18.018;2022-07-26T14:30:30;97904.25;;;20.84;66.13
71662;BME280;59500;49.588;18.018;2022-07-26T14:32:56;97906.94;;;20.84;66.20
71662;BME280;59500;49.588;18.018;2022-07-26T14:35:22;97904.03;;;20.98;66.93
71662;BME280;59500;49.588;18.018;2022-07-26T14:37:48;97905.69;;;21.11;65.60
71662;BME280;59500;49.588;18.018;2022-07-26T14:40:15;97900.16;;;21.17;66.12
71662;BME280;59500;49.588;18.018;2022-07-26T14:42:42;97906.47;;;21.23;63.33
71662;BME280;59500;49.588;18.018;2022-07-26T14:45:10;97911.44;;;21.26;63.41
71662;BME280;59500;49.588;18.018;2022-07-26T14:47:36;97912.59;;;21.30;62.30